Historyczne dane pomiarowe

Dodano dane terminowe – wersja testowa.

Dane z okresu 1951-2019

Wersja bazy: 1.34 [2019-03-16, lista zmian], aktualizacja planowana na 2019-04-15

Dane meteo z obszaru Polski uzyskane na podstawie danych udostępnionych przez Instytut Meteorologii i Gospodarki Wodnej – Państwowy Instytut Badawczy.

 

Wybierz Datę:    

       

TemperaturaWilgotnośćWiatrCiśnienieOpadyŚniegCzas trwania zjawisk
 Stacja t tx tn tng RH VA  wxwx mslp ppp RRR   cm mm wxwxwxwxwxwxwx
1965-07-16 14.6 17.9 13.2--- 8.0 3.7---- 0.1------------
1965-07-17 12.3 13.4 11.8--- 6.0 4.0---- 0.0------------
1965-07-18 13.9 17.6 10.9--- 1.0 3.0---- 0.0------------
1965-07-19 16.0 21.1 6.9--- 0.7 2.3---- 0.0------------
1965-07-20 17.0 22.6 9.3--- 0.7 1.0---- 0.0------------
1965-07-21 18.9 22.2 11.4--- 5.7 2.0---- 0.9------------
1965-07-22 16.7 20.8 15.3--- 6.7 2.0---- 0.9------------
1965-07-23 16.1 21.3 12.0--- 4.7 1.7---- 11.7------------
1965-07-24 14.1 18.5 11.8--- 6.7 4.0---- 7.6------------
1965-07-25 14.1 19.2 11.0--- 3.0 2.7---- 2.3------------
1965-07-26 12.5 13.8 11.5--- 7.7 3.0---- 9.1------------
1965-07-27 12.0 13.7 10.1--- 6.3 6.0---- 0.3------------
1965-07-28 11.4 13.1 9.4--- 7.0 5.7---- 1.2------------
1965-07-29 12.7 14.8 10.3--- 7.7 5.3---- 5.8------------
1965-07-30 12.5 15.5 11.2--- 7.0 6.3---- 7.8------------
1965-07-31 12.3 15.8 10.7--- 5.0 5.0---- 0.0------------
1965-08-01 12.2 17.2 7.6--- 3.0 3.0---- 0.0------------
1965-08-02 12.3 18.3 7.0--- 2.7 0.0---- 1.6------------
1965-08-03 14.5 19.1 7.9--- 2.7 2.0---- 0.7------------
1965-08-04 14.4 20.0 10.3--- 4.3 2.0---- 2.3------------
1965-08-05 14.3 18.7 11.7--- 6.0 2.3---- 0.0------------
1965-08-06 18.6 26.7 11.7--- 5.0 4.7---- 14.5------------
1965-08-07 16.1 21.6 13.7--- 8.0 0.0---- 2.9------------
1965-08-08 13.5 16.4 12.7--- 7.7 0.0---- 7.9------------
1965-08-09 11.9 16.1 10.3--- 5.3 2.0---- 0.0------------
1965-08-10 10.9 16.9 7.7--- 3.0 2.3---- 0.0------------
1965-08-11 13.0 17.3 8.3--- 6.3 2.0---- 0.6------------
1965-08-12 11.8 16.4 9.9--- 4.3 1.3---- 1.1------------
1965-08-13 12.0 16.4 7.6--- 4.0 2.7---- 5.6------------
1965-08-14 11.0 13.0 9.6--- 7.3 3.0---- 3.5------------
232.6 ms

 

Źródłem pochodzenia danych jest Instytut Meteorologii i Gospodarki Wodnej – Państwowy Instytut Badawczy. Dane Instytutu Meteorologii i Gospodarki Wodnej – Państwowego Instytutu Badawczego zostały przetworzone.

Dane źródłowe można odnaleźć na stronie https://dane.imgw.pl